sensor_id;sensor_type;location;lat;lon;timestamp;temperature;humidity
67769;DHT22;54569;52.018;5.584;2023-01-28T00:01:12;4.10;82.30
67769;DHT22;54569;52.018;5.584;2023-01-28T00:03:38;4.10;82.30
67769;DHT22;54569;52.018;5.584;2023-01-28T00:06:07;4.10;82.30
67769;DHT22;54569;52.018;5.584;2023-01-28T00:08:34;4.10;82.30
67769;DHT22;54569;52.018;5.584;2023-01-28T00:11:01;4.10;82.30
67769;DHT22;54569;52.018;5.584;2023-01-28T00:13:27;4.10;82.30
67769;DHT22;54569;52.018;5.584;2023-01-28T00:15:58;4.10;82.40
67769;DHT22;54569;52.018;5.584;2023-01-28T00:18:28;4.10;82.40
67769;DHT22;54569;52.018;5.584;2023-01-28T00:21:00;4.10;82.40
67769;DHT22;54569;52.018;5.584;2023-01-28T00:23:31;4.10;82.50
67769;DHT22;54569;52.018;5.584;2023-01-28T00:25:58;4.10;82.40
67769;DHT22;54569;52.018;5.584;2023-01-28T00:28:24;4.10;82.40
67769;DHT22;54569;52.018;5.584;2023-01-28T00:30:50;4.10;82.50
67769;DHT22;54569;52.018;5.584;2023-01-28T00:33:16;4.10;82.50
67769;DHT22;54569;52.018;5.584;2023-01-28T00:35:42;4.10;82.50
67769;DHT22;54569;52.018;5.584;2023-01-28T00:38:09;4.10;82.50
67769;DHT22;54569;52.018;5.584;2023-01-28T00:40:35;4.00;82.50
67769;DHT22;54569;52.018;5.584;2023-01-28T00:43:01;4.00;82.60
67769;DHT22;54569;52.018;5.584;2023-01-28T00:45:27;4.10;82.60
67769;DHT22;54569;52.018;5.584;2023-01-28T00:47:54;4.00;82.60
67769;DHT22;54569;52.018;5.584;2023-01-28T00:50:20;4.10;82.70
67769;DHT22;54569;52.018;5.584;2023-01-28T00:52:46;4.00;82.60
67769;DHT22;54569;52.018;5.584;2023-01-28T00:55:13;4.00;82.50
67769;DHT22;54569;52.018;5.584;2023-01-28T00:57:40;4.00;82.50
67769;DHT22;54569;52.018;5.584;2023-01-28T01:00:07;4.00;82.60
67769;DHT22;54569;52.018;5.584;2023-01-28T01:02:32;4.00;82.60
67769;DHT22;54569;52.018;5.584;2023-01-28T01:04:58;4.00;82.60
67769;DHT22;54569;52.018;5.584;2023-01-28T01:07:29;4.00;82.60
67769;DHT22;54569;52.018;5.584;2023-01-28T01:10:09;4.00;82.40
67769;DHT22;54569;52.018;5.584;2023-01-28T01:12:37;4.00;82.30
67769;DHT22;54569;52.018;5.584;2023-01-28T01:15:06;3.90;82.30
67769;DHT22;54569;52.018;5.584;2023-01-28T01:17:43;3.90;82.30
67769;DHT22;54569;52.018;5.584;2023-01-28T01:20:15;3.90;82.40
67769;DHT22;54569;52.018;5.584;2023-01-28T01:22:41;3.90;82.40
67769;DHT22;54569;52.018;5.584;2023-01-28T01:25:07;3.90;82.30
67769;DHT22;54569;52.018;5.584;2023-01-28T01:27:35;3.90;82.20
67769;DHT22;54569;52.018;5.584;2023-01-28T01:30:01;3.90;82.20
67769;DHT22;54569;52.018;5.584;2023-01-28T01:32:30;3.90;82.20
67769;DHT22;54569;52.018;5.584;2023-01-28T01:34:57;3.90;82.20
67769;DHT22;54569;52.018;5.584;2023-01-28T01:37:24;3.90;82.20
67769;DHT22;54569;52.018;5.584;2023-01-28T01:39:50;3.90;82.10
67769;DHT22;54569;52.018;5.584;2023-01-28T01:42:15;3.90;81.90
67769;DHT22;54569;52.018;5.584;2023-01-28T01:50:33;3.80;81.60
67769;DHT22;54569;52.018;5.584;2023-01-28T01:53:06;3.80;81.60
67769;DHT22;54569;52.018;5.584;2023-01-28T01:55:35;3.80;81.60
67769;DHT22;54569;52.018;5.584;2023-01-28T01:58:05;3.80;81.40
67769;DHT22;54569;52.018;5.584;2023-01-28T02:00:31;3.80;81.20
67769;DHT22;54569;52.018;5.584;2023-01-28T02:02:57;3.70;81.00
67769;DHT22;54569;52.018;5.584;2023-01-28T02:05:23;3.70;81.00
67769;DHT22;54569;52.018;5.584;2023-01-28T02:07:53;3.80;80.90
67769;DHT22;54569;52.018;5.584;2023-01-28T02:10:21;3.80;80.90
67769;DHT22;54569;52.018;5.584;2023-01-28T02:12:54;3.80;80.90
67769;DHT22;54569;52.018;5.584;2023-01-28T02:15:25;3.80;80.90
67769;DHT22;54569;52.018;5.584;2023-01-28T02:17:51;3.80;80.70
67769;DHT22;54569;52.018;5.584;2023-01-28T02:20:29;3.80;80.70
67769;DHT22;54569;52.018;5.584;2023-01-28T02:23:20;3.80;80.60
67769;DHT22;54569;52.018;5.584;2023-01-28T02:28:51;3.80;80.60
67769;DHT22;54569;52.018;5.584;2023-01-28T02:31:18;3.80;80.60
67769;DHT22;54569;52.018;5.584;2023-01-28T02:34:01;3.80;80.70
67769;DHT22;54569;52.018;5.584;2023-01-28T02:36:35;3.80;80.70
67769;DHT22;54569;52.018;5.584;2023-01-28T02:39:12;3.80;79.60
67769;DHT22;54569;52.018;5.584;2023-01-28T02:42:03;3.80;80.60
67769;DHT22;54569;52.018;5.584;2023-01-28T02:44:29;3.70;80.40
67769;DHT22;54569;52.018;5.584;2023-01-28T02:46:55;3.80;80.60
67769;DHT22;54569;52.018;5.584;2023-01-28T02:49:51;3.70;80.60
67769;DHT22;54569;52.018;5.584;2023-01-28T03:00:27;3.70;80.30
67769;DHT22;54569;52.018;5.584;2023-01-28T03:06:06;3.70;80.30
67769;DHT22;54569;52.018;5.584;2023-01-28T03:08:58;3.70;80.20
67769;DHT22;54569;52.018;5.584;2023-01-28T03:11:51;3.70;80.40
67769;DHT22;54569;52.018;5.584;2023-01-28T03:14:37;3.70;80.50
67769;DHT22;54569;52.018;5.584;2023-01-28T03:20:14;3.70;80.70
67769;DHT22;54569;52.018;5.584;2023-01-28T03:23:03;3.70;80.70
67769;DHT22;54569;52.018;5.584;2023-01-28T03:25:51;3.70;80.70
67769;DHT22;54569;52.018;5.584;2023-01-28T03:28:38;3.70;81.50
67769;DHT22;54569;52.018;5.584;2023-01-28T03:31:24;3.70;81.00
67769;DHT22;54569;52.018;5.584;2023-01-28T03:34:11;3.70;80.90
67769;DHT22;54569;52.018;5.584;2023-01-28T03:36:56;3.70;80.90
67769;DHT22;54569;52.018;5.584;2023-01-28T03:39:44;3.70;80.90
67769;DHT22;54569;52.018;5.584;2023-01-28T03:42:13;3.70;81.00
67769;DHT22;54569;52.018;5.584;2023-01-28T03:44:59;3.70;81.00
67769;DHT22;54569;52.018;5.584;2023-01-28T03:47:30;3.70;81.10
67769;DHT22;54569;52.018;5.584;2023-01-28T03:49:58;3.70;81.20
67769;DHT22;54569;52.018;5.584;2023-01-28T03:52:28;3.80;81.20
67769;DHT22;54569;52.018;5.584;2023-01-28T03:55:05;3.70;81.20
67769;DHT22;54569;52.018;5.584;2023-01-28T03:57:38;3.70;81.30
67769;DHT22;54569;52.018;5.584;2023-01-28T04:00:04;3.70;81.40
67769;DHT22;54569;52.018;5.584;2023-01-28T04:02:39;3.80;81.50
67769;DHT22;54569;52.018;5.584;2023-01-28T04:05:08;3.70;81.50
67769;DHT22;54569;52.018;5.584;2023-01-28T04:07:41;3.70;81.60
67769;DHT22;54569;52.018;5.584;2023-01-28T04:10:13;3.70;81.20
67769;DHT22;54569;52.018;5.584;2023-01-28T04:12:47;3.70;81.70
67769;DHT22;54569;52.018;5.584;2023-01-28T04:15:19;3.70;81.70
67769;DHT22;54569;52.018;5.584;2023-01-28T04:17:47;3.70;81.70
67769;DHT22;54569;52.018;5.584;2023-01-28T04:20:20;3.70;81.80
67769;DHT22;54569;52.018;5.584;2023-01-28T04:22:45;3.70;81.90
67769;DHT22;54569;52.018;5.584;2023-01-28T04:25:13;3.70;81.90
67769;DHT22;54569;52.018;5.584;2023-01-28T04:27:39;3.70;82.00
67769;DHT22;54569;52.018;5.584;2023-01-28T04:30:16;3.70;82.00
67769;DHT22;54569;52.018;5.584;2023-01-28T04:32:54;3.70;81.80
67769;DHT22;54569;52.018;5.584;2023-01-28T04:35:43;3.70;81.50
67769;DHT22;54569;52.018;5.584;2023-01-28T04:38:32;3.70;81.50
67769;DHT22;54569;52.018;5.584;2023-01-28T04:41:27;3.70;81.50
67769;DHT22;54569;52.018;5.584;2023-01-28T04:43:56;3.70;81.60
67769;DHT22;54569;52.018;5.584;2023-01-28T04:46:32;3.70;81.70
67769;DHT22;54569;52.018;5.584;2023-01-28T04:49:22;3.70;81.70
67769;DHT22;54569;52.018;5.584;2023-01-28T04:52:06;3.70;81.70
67769;DHT22;54569;52.018;5.584;2023-01-28T04:54:54;3.60;81.60
67769;DHT22;54569;52.018;5.584;2023-01-28T04:57:21;3.60;81.50
67769;DHT22;54569;52.018;5.584;2023-01-28T04:59:47;3.60;81.30
67769;DHT22;54569;52.018;5.584;2023-01-28T05:02:14;3.60;81.20
67769;DHT22;54569;52.018;5.584;2023-01-28T05:04:41;3.60;81.10
67769;DHT22;54569;52.018;5.584;2023-01-28T05:07:10;3.60;81.00
67769;DHT22;54569;52.018;5.584;2023-01-28T05:09:36;3.60;80.90
67769;DHT22;54569;52.018;5.584;2023-01-28T05:12:02;3.60;80.90
67769;DHT22;54569;52.018;5.584;2023-01-28T05:14:30;3.60;80.90
67769;DHT22;54569;52.018;5.584;2023-01-28T05:17:03;3.60;80.80
67769;DHT22;54569;52.018;5.584;2023-01-28T05:19:29;3.60;80.70
67769;DHT22;54569;52.018;5.584;2023-01-28T05:21:56;3.60;80.60
67769;DHT22;54569;52.018;5.584;2023-01-28T05:24:36;3.60;80.60
67769;DHT22;54569;52.018;5.584;2023-01-28T05:27:02;3.60;80.40
67769;DHT22;54569;52.018;5.584;2023-01-28T05:29:28;3.60;80.40
67769;DHT22;54569;52.018;5.584;2023-01-28T05:31:54;3.60;80.40
67769;DHT22;54569;52.018;5.584;2023-01-28T05:34:20;3.60;80.30
67769;DHT22;54569;52.018;5.584;2023-01-28T05:36:45;3.60;80.30
67769;DHT22;54569;52.018;5.584;2023-01-28T05:39:29;3.60;80.20
67769;DHT22;54569;52.018;5.584;2023-01-28T05:41:56;3.60;80.10
67769;DHT22;54569;52.018;5.584;2023-01-28T05:44:22;3.60;80.00
67769;DHT22;54569;52.018;5.584;2023-01-28T05:46:58;3.60;79.80
67769;DHT22;54569;52.018;5.584;2023-01-28T05:49:58;3.50;79.60
67769;DHT22;54569;52.018;5.584;2023-01-28T05:52:42;3.50;79.60
67769;DHT22;54569;52.018;5.584;2023-01-28T05:55:16;3.40;79.40
67769;DHT22;54569;52.018;5.584;2023-01-28T05:57:42;3.50;79.50
67769;DHT22;54569;52.018;5.584;2023-01-28T06:00:11;3.40;79.40
67769;DHT22;54569;52.018;5.584;2023-01-28T06:02:41;3.40;79.40
67769;DHT22;54569;52.018;5.584;2023-01-28T06:05:08;3.40;79.20
67769;DHT22;54569;52.018;5.584;2023-01-28T06:07:35;3.40;79.20
67769;DHT22;54569;52.018;5.584;2023-01-28T06:10:02;3.40;79.20
67769;DHT22;54569;52.018;5.584;2023-01-28T06:12:28;3.40;79.30
67769;DHT22;54569;52.018;5.584;2023-01-28T06:15:20;3.40;79.40
67769;DHT22;54569;52.018;5.584;2023-01-28T06:18:01;3.40;79.40
67769;DHT22;54569;52.018;5.584;2023-01-28T06:20:30;3.40;79.40
67769;DHT22;54569;52.018;5.584;2023-01-28T06:22:57;3.40;79.40
67769;DHT22;54569;52.018;5.584;2023-01-28T06:25:23;3.40;79.50
67769;DHT22;54569;52.018;5.584;2023-01-28T06:27:48;3.40;79.50
67769;DHT22;54569;52.018;5.584;2023-01-28T06:30:14;3.40;79.40
67769;DHT22;54569;52.018;5.584;2023-01-28T06:32:40;3.40;79.20
67769;DHT22;54569;52.018;5.584;2023-01-28T06:35:06;3.40;79.20
67769;DHT22;54569;52.018;5.584;2023-01-28T06:37:32;3.40;79.20
67769;DHT22;54569;52.018;5.584;2023-01-28T06:39:58;3.30;79.20
67769;DHT22;54569;52.018;5.584;2023-01-28T06:42:23;3.40;79.20
67769;DHT22;54569;52.018;5.584;2023-01-28T06:44:49;3.30;79.00
67769;DHT22;54569;52.018;5.584;2023-01-28T06:47:15;3.30;79.00
67769;DHT22;54569;52.018;5.584;2023-01-28T06:49:40;3.30;79.00
67769;DHT22;54569;52.018;5.584;2023-01-28T06:52:06;3.30;79.10
67769;DHT22;54569;52.018;5.584;2023-01-28T06:54:32;3.30;79.10
67769;DHT22;54569;52.018;5.584;2023-01-28T06:56:58;3.30;79.00
67769;DHT22;54569;52.018;5.584;2023-01-28T06:59:23;3.30;79.10
67769;DHT22;54569;52.018;5.584;2023-01-28T07:01:49;3.30;79.20
67769;DHT22;54569;52.018;5.584;2023-01-28T07:04:15;3.40;79.30
67769;DHT22;54569;52.018;5.584;2023-01-28T07:06:40;3.30;79.00
67769;DHT22;54569;52.018;5.584;2023-01-28T07:09:06;3.30;79.10
67769;DHT22;54569;52.018;5.584;2023-01-28T07:11:31;3.30;79.10
67769;DHT22;54569;52.018;5.584;2023-01-28T07:13:57;3.30;79.00
67769;DHT22;54569;52.018;5.584;2023-01-28T07:16:23;3.30;79.00
67769;DHT22;54569;52.018;5.584;2023-01-28T07:18:49;3.30;79.00
67769;DHT22;54569;52.018;5.584;2023-01-28T07:21:16;3.30;79.00
67769;DHT22;54569;52.018;5.584;2023-01-28T07:23:41;3.30;79.00
67769;DHT22;54569;52.018;5.584;2023-01-28T07:26:07;3.30;79.00
67769;DHT22;54569;52.018;5.584;2023-01-28T07:28:33;3.30;78.80
67769;DHT22;54569;52.018;5.584;2023-01-28T07:30:58;3.20;78.80
67769;DHT22;54569;52.018;5.584;2023-01-28T07:33:24;3.20;78.90
67769;DHT22;54569;52.018;5.584;2023-01-28T07:35:50;3.20;79.10
67769;DHT22;54569;52.018;5.584;2023-01-28T07:38:16;3.30;79.10
67769;DHT22;54569;52.018;5.584;2023-01-28T07:40:41;3.30;79.10
67769;DHT22;54569;52.018;5.584;2023-01-28T07:43:07;3.30;79.00
67769;DHT22;54569;52.018;5.584;2023-01-28T07:45:38;3.30;79.00
67769;DHT22;54569;52.018;5.584;2023-01-28T07:48:06;3.30;79.00
67769;DHT22;54569;52.018;5.584;2023-01-28T07:50:34;3.20;78.80
67769;DHT22;54569;52.018;5.584;2023-01-28T07:53:10;3.20;78.80
67769;DHT22;54569;52.018;5.584;2023-01-28T07:55:37;3.20;78.70
67769;DHT22;54569;52.018;5.584;2023-01-28T07:58:05;3.20;78.60
67769;DHT22;54569;52.018;5.584;2023-01-28T08:00:32;3.20;78.60
67769;DHT22;54569;52.018;5.584;2023-01-28T08:03:00;3.20;78.70
67769;DHT22;54569;52.018;5.584;2023-01-28T08:05:37;3.20;78.70
67769;DHT22;54569;52.018;5.584;2023-01-28T08:08:04;3.20;78.70
67769;DHT22;54569;52.018;5.584;2023-01-28T08:10:29;3.20;78.60
67769;DHT22;54569;52.018;5.584;2023-01-28T08:12:57;3.20;78.70
67769;DHT22;54569;52.018;5.584;2023-01-28T08:15:28;3.20;78.60
67769;DHT22;54569;52.018;5.584;2023-01-28T08:17:55;3.20;78.60
67769;DHT22;54569;52.018;5.584;2023-01-28T08:20:22;3.30;78.70
67769;DHT22;54569;52.018;5.584;2023-01-28T08:22:48;3.30;78.60
67769;DHT22;54569;52.018;5.584;2023-01-28T08:25:14;3.30;78.40
67769;DHT22;54569;52.018;5.584;2023-01-28T08:27:39;3.30;78.50
67769;DHT22;54569;52.018;5.584;2023-01-28T08:30:06;3.30;78.50
67769;DHT22;54569;52.018;5.584;2023-01-28T08:32:33;3.30;78.40
67769;DHT22;54569;52.018;5.584;2023-01-28T08:34:59;3.30;78.50
67769;DHT22;54569;52.018;5.584;2023-01-28T08:37:27;3.30;78.50
67769;DHT22;54569;52.018;5.584;2023-01-28T08:39:53;3.30;78.30
67769;DHT22;54569;52.018;5.584;2023-01-28T08:42:18;3.30;78.40
67769;DHT22;54569;52.018;5.584;2023-01-28T08:44:44;3.30;78.50
67769;DHT22;54569;52.018;5.584;2023-01-28T08:47:10;3.30;78.50
67769;DHT22;54569;52.018;5.584;2023-01-28T08:49:35;3.40;78.60
67769;DHT22;54569;52.018;5.584;2023-01-28T08:52:01;3.30;78.40
67769;DHT22;54569;52.018;5.584;2023-01-28T08:54:27;3.30;78.50
67769;DHT22;54569;52.018;5.584;2023-01-28T08:56:52;3.30;78.50
67769;DHT22;54569;52.018;5.584;2023-01-28T08:59:18;3.30;78.30
67769;DHT22;54569;52.018;5.584;2023-01-28T09:01:44;3.30;78.50
67769;DHT22;54569;52.018;5.584;2023-01-28T09:04:09;3.40;78.50
67769;DHT22;54569;52.018;5.584;2023-01-28T09:06:35;3.40;78.20
67769;DHT22;54569;52.018;5.584;2023-01-28T09:09:01;3.50;78.10
67769;DHT22;54569;52.018;5.584;2023-01-28T09:11:28;3.50;77.90
67769;DHT22;54569;52.018;5.584;2023-01-28T09:13:55;3.60;77.90
67769;DHT22;54569;52.018;5.584;2023-01-28T09:16:21;3.70;77.70
67769;DHT22;54569;52.018;5.584;2023-01-28T09:18:47;3.70;77.50
67769;DHT22;54569;52.018;5.584;2023-01-28T09:21:13;3.70;77.40
67769;DHT22;54569;52.018;5.584;2023-01-28T09:23:39;3.80;77.50
67769;DHT22;54569;52.018;5.584;2023-01-28T09:26:05;3.80;77.30
67769;DHT22;54569;52.018;5.584;2023-01-28T09:28:32;3.80;77.20
67769;DHT22;54569;52.018;5.584;2023-01-28T09:31:05;3.80;77.00
67769;DHT22;54569;52.018;5.584;2023-01-28T09:33:31;3.90;77.10
67769;DHT22;54569;52.018;5.584;2023-01-28T09:36:02;3.90;77.00
67769;DHT22;54569;52.018;5.584;2023-01-28T09:38:29;4.00;76.90
67769;DHT22;54569;52.018;5.584;2023-01-28T09:40:55;4.00;76.70
67769;DHT22;54569;52.018;5.584;2023-01-28T09:43:43;4.10;76.70
67769;DHT22;54569;52.018;5.584;2023-01-28T09:46:14;4.10;76.50
67769;DHT22;54569;52.018;5.584;2023-01-28T09:48:46;4.10;76.30
67769;DHT22;54569;52.018;5.584;2023-01-28T09:53:52;4.30;76.20
67769;DHT22;54569;52.018;5.584;2023-01-28T09:56:31;4.30;76.20
67769;DHT22;54569;52.018;5.584;2023-01-28T09:59:17;4.30;76.00
67769;DHT22;54569;52.018;5.584;2023-01-28T10:01:49;4.40;76.00
67769;DHT22;54569;52.018;5.584;2023-01-28T10:04:24;4.50;76.10
67769;DHT22;54569;52.018;5.584;2023-01-28T10:07:03;4.50;75.90
67769;DHT22;54569;52.018;5.584;2023-01-28T10:15:19;4.60;75.20
67769;DHT22;54569;52.018;5.584;2023-01-28T10:17:49;4.60;75.40
67769;DHT22;54569;52.018;5.584;2023-01-28T10:20:23;4.60;75.50
67769;DHT22;54569;52.018;5.584;2023-01-28T10:22:57;4.60;75.40
67769;DHT22;54569;52.018;5.584;2023-01-28T10:25:29;4.60;75.40
67769;DHT22;54569;52.018;5.584;2023-01-28T10:27:55;4.60;75.40
67769;DHT22;54569;52.018;5.584;2023-01-28T10:30:26;4.70;75.50
67769;DHT22;54569;52.018;5.584;2023-01-28T10:33:04;4.90;75.60
67769;DHT22;54569;52.018;5.584;2023-01-28T10:35:38;5.30;75.20
67769;DHT22;54569;52.018;5.584;2023-01-28T10:38:05;5.70;74.10
67769;DHT22;54569;52.018;5.584;2023-01-28T10:40:33;6.30;73.40
67769;DHT22;54569;52.018;5.584;2023-01-28T10:42:59;7.00;72.20
67769;DHT22;54569;52.018;5.584;2023-01-28T10:45:36;7.70;70.60
67769;DHT22;54569;52.018;5.584;2023-01-28T10:48:12;8.50;69.50
67769;DHT22;54569;52.018;5.584;2023-01-28T10:50:52;9.20;69.10
67769;DHT22;54569;52.018;5.584;2023-01-28T10:53:18;10.00;68.40
67769;DHT22;54569;52.018;5.584;2023-01-28T10:55:57;10.50;68.60
67769;DHT22;54569;52.018;5.584;2023-01-28T10:58:27;11.00;68.10
67769;DHT22;54569;52.018;5.584;2023-01-28T11:00:56;11.60;68.90
67769;DHT22;54569;52.018;5.584;2023-01-28T11:03:25;12.20;68.60
67769;DHT22;54569;52.018;5.584;2023-01-28T11:05:56;12.90;68.50
67769;DHT22;54569;52.018;5.584;2023-01-28T11:08:23;13.60;68.30
67769;DHT22;54569;52.018;5.584;2023-01-28T11:10:50;14.10;68.30
67769;DHT22;54569;52.018;5.584;2023-01-28T11:13:19;14.90;68.10
67769;DHT22;54569;52.018;5.584;2023-01-28T11:16:09;15.80;66.30
67769;DHT22;54569;52.018;5.584;2023-01-28T11:18:49;16.30;60.20
67769;DHT22;54569;52.018;5.584;2023-01-28T11:21:19;16.60;64.20
67769;DHT22;54569;52.018;5.584;2023-01-28T11:26:25;17.80;59.80
67769;DHT22;54569;52.018;5.584;2023-01-28T11:28:52;18.20;59.20
67769;DHT22;54569;52.018;5.584;2023-01-28T11:31:19;18.40;60.30
67769;DHT22;54569;52.018;5.584;2023-01-28T11:33:54;18.70;59.30
67769;DHT22;54569;52.018;5.584;2023-01-28T11:36:26;18.50;58.90
67769;DHT22;54569;52.018;5.584;2023-01-28T11:38:57;18.30;59.60
67769;DHT22;54569;52.018;5.584;2023-01-28T11:41:36;17.70;58.90
67769;DHT22;54569;52.018;5.584;2023-01-28T11:44:18;16.80;61.50
67769;DHT22;54569;52.018;5.584;2023-01-28T11:52:25;15.60;62.40
67769;DHT22;54569;52.018;5.584;2023-01-28T12:01:13;15.50;53.10
67769;DHT22;54569;52.018;5.584;2023-01-28T12:04:16;14.90;58.70
67769;DHT22;54569;52.018;5.584;2023-01-28T12:10:08;14.30;60.50
67769;DHT22;54569;52.018;5.584;2023-01-28T12:13:18;14.10;58.40
67769;DHT22;54569;52.018;5.584;2023-01-28T12:15:59;14.00;57.50
67769;DHT22;54569;52.018;5.584;2023-01-28T12:22:21;13.60;58.00
67769;DHT22;54569;52.018;5.584;2023-01-28T12:39:40;12.20;63.60
67769;DHT22;54569;52.018;5.584;2023-01-28T12:42:34;12.00;61.10
67769;DHT22;54569;52.018;5.584;2023-01-28T12:47:43;11.90;62.70
67769;DHT22;54569;52.018;5.584;2023-01-28T12:50:26;11.70;64.30
67769;DHT22;54569;52.018;5.584;2023-01-28T12:53:15;11.70;63.20
67769;DHT22;54569;52.018;5.584;2023-01-28T12:55:46;11.70;62.90
67769;DHT22;54569;52.018;5.584;2023-01-28T12:58:20;11.80;63.30
67769;DHT22;54569;52.018;5.584;2023-01-28T13:00:50;11.60;62.80
67769;DHT22;54569;52.018;5.584;2023-01-28T13:03:35;11.40;63.50
67769;DHT22;54569;52.018;5.584;2023-01-28T13:06:14;11.10;63.30
67769;DHT22;54569;52.018;5.584;2023-01-28T13:08:42;10.80;63.30
67769;DHT22;54569;52.018;5.584;2023-01-28T13:11:13;10.60;64.30
67769;DHT22;54569;52.018;5.584;2023-01-28T13:13:41;10.50;64.20
67769;DHT22;54569;52.018;5.584;2023-01-28T13:16:09;10.50;64.30
67769;DHT22;54569;52.018;5.584;2023-01-28T13:24:16;10.80;62.60
67769;DHT22;54569;52.018;5.584;2023-01-28T13:27:29;10.70;61.40
67769;DHT22;54569;52.018;5.584;2023-01-28T13:29:31;10.50;62.40
67769;DHT22;54569;52.018;5.584;2023-01-28T13:32:00;10.30;63.00
67769;DHT22;54569;52.018;5.584;2023-01-28T13:42:34;9.80;62.70
67769;DHT22;54569;52.018;5.584;2023-01-28T13:45:35;9.70;63.40
67769;DHT22;54569;52.018;5.584;2023-01-28T13:51:33;9.80;61.60
67769;DHT22;54569;52.018;5.584;2023-01-28T13:54:06;9.80;62.30
67769;DHT22;54569;52.018;5.584;2023-01-28T14:05:30;9.60;61.70
67769;DHT22;54569;52.018;5.584;2023-01-28T14:09:02;9.60;61.80
67769;DHT22;54569;52.018;5.584;2023-01-28T14:12:07;9.30;60.80
67769;DHT22;54569;52.018;5.584;2023-01-28T14:17:48;9.10;62.60
67769;DHT22;54569;52.018;5.584;2023-01-28T14:20:43;8.90;63.40
67769;DHT22;54569;52.018;5.584;2023-01-28T14:23:20;8.70;62.50
67769;DHT22;54569;52.018;5.584;2023-01-28T14:29:09;8.50;64.00
67769;DHT22;54569;52.018;5.584;2023-01-28T14:31:36;8.40;64.30
67769;DHT22;54569;52.018;5.584;2023-01-28T14:34:27;8.20;64.40
67769;DHT22;54569;52.018;5.584;2023-01-28T14:37:08;8.10;64.20
67769;DHT22;54569;52.018;5.584;2023-01-28T14:39:50;8.10;65.00
67769;DHT22;54569;52.018;5.584;2023-01-28T14:45:32;8.10;64.80
67769;DHT22;54569;52.018;5.584;2023-01-28T14:48:10;8.00;64.80
67769;DHT22;54569;52.018;5.584;2023-01-28T15:01:57;7.90;64.50
67769;DHT22;54569;52.018;5.584;2023-01-28T15:04:27;8.00;64.50
67769;DHT22;54569;52.018;5.584;2023-01-28T15:06:54;8.00;64.60
67769;DHT22;54569;52.018;5.584;2023-01-28T15:09:20;8.10;64.60
67769;DHT22;54569;52.018;5.584;2023-01-28T15:11:49;8.10;64.30
67769;DHT22;54569;52.018;5.584;2023-01-28T15:14:33;8.10;64.30
67769;DHT22;54569;52.018;5.584;2023-01-28T15:17:00;8.10;64.00
67769;DHT22;54569;52.018;5.584;2023-01-28T15:19:28;8.00;64.40
67769;DHT22;54569;52.018;5.584;2023-01-28T15:22:01;7.90;64.50
67769;DHT22;54569;52.018;5.584;2023-01-28T15:24:28;7.80;64.60
67769;DHT22;54569;52.018;5.584;2023-01-28T15:26:55;7.90;64.70
67769;DHT22;54569;52.018;5.584;2023-01-28T15:29:35;8.00;64.60
67769;DHT22;54569;52.018;5.584;2023-01-28T15:32:02;7.90;64.40
67769;DHT22;54569;52.018;5.584;2023-01-28T15:34:29;7.70;64.60
67769;DHT22;54569;52.018;5.584;2023-01-28T15:36:59;7.60;64.90
67769;DHT22;54569;52.018;5.584;2023-01-28T15:39:26;7.40;65.30
67769;DHT22;54569;52.018;5.584;2023-01-28T15:41:59;7.30;65.50
67769;DHT22;54569;52.018;5.584;2023-01-28T15:44:30;7.20;65.80
67769;DHT22;54569;52.018;5.584;2023-01-28T15:47:02;7.00;66.00
67769;DHT22;54569;52.018;5.584;2023-01-28T15:49:35;6.90;66.10
67769;DHT22;54569;52.018;5.584;2023-01-28T15:52:02;6.80;66.20
67769;DHT22;54569;52.018;5.584;2023-01-28T15:54:28;6.70;66.30
67769;DHT22;54569;52.018;5.584;2023-01-28T15:56:55;6.60;66.50
67769;DHT22;54569;52.018;5.584;2023-01-28T15:59:30;6.60;66.70
67769;DHT22;54569;52.018;5.584;2023-01-28T16:02:21;6.40;67.00
67769;DHT22;54569;52.018;5.584;2023-01-28T16:05:05;6.30;67.00
67769;DHT22;54569;52.018;5.584;2023-01-28T16:07:44;6.30;67.10
67769;DHT22;54569;52.018;5.584;2023-01-28T16:10:19;6.20;67.50
67769;DHT22;54569;52.018;5.584;2023-01-28T16:13:13;6.10;67.70
67769;DHT22;54569;52.018;5.584;2023-01-28T16:15:36;6.00;68.10
67769;DHT22;54569;52.018;5.584;2023-01-28T16:18:04;5.90;68.20
67769;DHT22;54569;52.018;5.584;2023-01-28T16:20:31;5.80;68.40
67769;DHT22;54569;52.018;5.584;2023-01-28T16:22:59;5.70;68.50
67769;DHT22;54569;52.018;5.584;2023-01-28T16:25:34;5.70;68.50
67769;DHT22;54569;52.018;5.584;2023-01-28T16:28:18;5.60;68.40
67769;DHT22;54569;52.018;5.584;2023-01-28T16:30:44;5.60;68.40
67769;DHT22;54569;52.018;5.584;2023-01-28T16:33:20;5.60;68.50
67769;DHT22;54569;52.018;5.584;2023-01-28T16:35:49;5.60;68.50
67769;DHT22;54569;52.018;5.584;2023-01-28T16:38:16;5.50;68.50
67769;DHT22;54569;52.018;5.584;2023-01-28T16:40:43;5.60;68.60
67769;DHT22;54569;52.018;5.584;2023-01-28T16:43:14;5.60;69.10
67769;DHT22;54569;52.018;5.584;2023-01-28T16:45:41;5.50;68.40
67769;DHT22;54569;52.018;5.584;2023-01-28T16:48:07;5.50;68.40
67769;DHT22;54569;52.018;5.584;2023-01-28T16:50:33;5.50;68.40
67769;DHT22;54569;52.018;5.584;2023-01-28T16:52:59;5.50;68.50
67769;DHT22;54569;52.018;5.584;2023-01-28T16:55:25;5.50;68.50
67769;DHT22;54569;52.018;5.584;2023-01-28T16:57:55;5.50;68.50
67769;DHT22;54569;52.018;5.584;2023-01-28T17:00:25;5.40;68.40
67769;DHT22;54569;52.018;5.584;2023-01-28T17:02:53;5.40;68.50
67769;DHT22;54569;52.018;5.584;2023-01-28T17:05:19;5.40;68.50
67769;DHT22;54569;52.018;5.584;2023-01-28T17:07:46;5.40;68.50
67769;DHT22;54569;52.018;5.584;2023-01-28T17:10:16;5.30;68.50
67769;DHT22;54569;52.018;5.584;2023-01-28T17:12:42;5.30;68.50
67769;DHT22;54569;52.018;5.584;2023-01-28T17:15:08;5.30;68.50
67769;DHT22;54569;52.018;5.584;2023-01-28T17:17:35;5.30;68.60
67769;DHT22;54569;52.018;5.584;2023-01-28T17:20:01;5.20;68.50
67769;DHT22;54569;52.018;5.584;2023-01-28T17:22:27;5.20;68.50
67769;DHT22;54569;52.018;5.584;2023-01-28T17:24:52;5.20;68.50
67769;DHT22;54569;52.018;5.584;2023-01-28T17:27:18;5.20;68.50
67769;DHT22;54569;52.018;5.584;2023-01-28T17:29:44;5.20;68.50
67769;DHT22;54569;52.018;5.584;2023-01-28T17:32:09;5.20;68.60
67769;DHT22;54569;52.018;5.584;2023-01-28T17:34:35;5.10;68.50
67769;DHT22;54569;52.018;5.584;2023-01-28T17:37:00;5.10;68.60
67769;DHT22;54569;52.018;5.584;2023-01-28T17:39:26;5.10;68.70
67769;DHT22;54569;52.018;5.584;2023-01-28T17:41:52;5.00;68.60
67769;DHT22;54569;52.018;5.584;2023-01-28T17:44:18;5.00;68.70
67769;DHT22;54569;52.018;5.584;2023-01-28T17:46:44;5.00;68.60
67769;DHT22;54569;52.018;5.584;2023-01-28T17:49:11;5.00;69.30
67769;DHT22;54569;52.018;5.584;2023-01-28T17:51:37;5.00;68.60
67769;DHT22;54569;52.018;5.584;2023-01-28T17:54:03;5.00;68.70
67769;DHT22;54569;52.018;5.584;2023-01-28T17:56:29;4.90;68.80
67769;DHT22;54569;52.018;5.584;2023-01-28T17:59:00;4.90;68.80
67769;DHT22;54569;52.018;5.584;2023-01-28T18:01:34;4.80;68.90
67769;DHT22;54569;52.018;5.584;2023-01-28T18:04:03;4.80;69.00
67769;DHT22;54569;52.018;5.584;2023-01-28T18:06:30;4.80;69.00
67769;DHT22;54569;52.018;5.584;2023-01-28T18:08:56;4.80;69.60